Time;durP1;ratioP1;P1;durP2;ratioP2;P2;SDS_P1;SDS_P2;PMS_P1;PMS_P2;Temp;Humidity;BMP_temperature;BMP_pressure;BME280_temperature;BME280_humidity;BME280_pressure;Samples;Min_cycle;Max_cycle;Signal;HPM_P1;HPM_P2
2023/07/11 00:00:04;;;;;;;3.92;3.30;;;;;;;;;;6235895;28;20052;-65
2023/07/11 00:03:04;;;;;;;3.38;3.05;;;;;;;;;;5885920;28;10000266;-67
2023/07/11 00:06:07;;;;;;;3.07;2.77;;;;;;;;;;6236396;28;20410;-70
2023/07/11 00:09:07;;;;;;;6.15;3.17;;;;;;;;;;6235093;28;20279;-66
2023/07/11 00:12:07;;;;;;;4.33;2.93;;;;;;;;;;6234527;28;20379;-66
2023/07/11 00:15:12;;;;;;;3.67;3.00;;;;;;;;;;6237327;28;20268;-67
2023/07/11 00:18:13;;;;;;;3.67;2.88;;;;;;;;;;6236573;28;20123;-68
2023/07/11 00:21:13;;;;;;;5.35;3.15;;;;;;;;;;6235274;28;20123;-67
2023/07/11 00:24:13;;;;;;;3.95;3.10;;;;;;;;;;6234406;28;20037;-67
2023/07/11 00:27:15;;;;;;;4.40;3.03;;;;;;;;;;6237161;28;20048;-67
2023/07/11 00:30:15;;;;;;;3.67;2.90;;;;;;;;;;6240232;28;20056;-67
2023/07/11 00:33:16;;;;;;;4.33;3.40;;;;;;;;;;6251714;28;20053;-67
2023/07/11 00:36:16;;;;;;;5.15;3.17;;;;;;;;;;6236029;28;20283;-66
2023/07/11 00:39:16;;;;;;;3.90;3.50;;;;;;;;;;6235259;28;20025;-66
2023/07/11 00:42:16;;;;;;;3.63;3.03;;;;;;;;;;6232726;28;20025;-66
2023/07/11 00:45:45;;;;;;;4.85;3.30;;;;;;;;;;6235763;28;20088;-66
2023/07/11 00:48:51;;;;;;;5.38;2.92;;;;;;;;;;6236059;28;20021;-67
2023/07/11 00:51:56;;;;;;;3.42;3.13;;;;;;;;;;6235003;28;20028;-66
2023/07/11 00:54:58;;;;;;;3.40;3.03;;;;;;;;;;6233795;28;20079;-67
2023/07/11 00:57:59;;;;;;;3.10;2.80;;;;;;;;;;6236781;28;20040;-67
2023/07/11 01:01:00;;;;;;;5.18;3.30;;;;;;;;;;6235843;28;20022;-64
2023/07/11 01:04:00;;;;;;;3.42;3.08;;;;;;;;;;6235619;28;20034;-68
2023/07/11 01:07:00;;;;;;;3.20;2.88;;;;;;;;;;6235754;28;21215;-67
2023/07/11 01:10:01;;;;;;;3.35;3.05;;;;;;;;;;6237322;28;20021;-67
2023/07/11 01:13:03;;;;;;;7.25;3.05;;;;;;;;;;6230447;28;20825;-66
2023/07/11 01:16:03;;;;;;;4.55;3.17;;;;;;;;;;6235332;28;20023;-69
2023/07/11 01:19:03;;;;;;;3.57;3.10;;;;;;;;;;6233735;28;20462;-68
2023/07/11 01:22:04;;;;;;;3.87;3.03;;;;;;;;;;6233734;28;20268;-68
2023/07/11 01:25:08;;;;;;;3.53;3.00;;;;;;;;;;6233385;28;20644;-67
2023/07/11 01:28:12;;;;;;;3.83;3.42;;;;;;;;;;6232458;28;21117;-68
2023/07/11 01:31:13;;;;;;;4.05;3.30;;;;;;;;;;6233083;28;20022;-67
2023/07/11 01:34:13;;;;;;;3.30;3.00;;;;;;;;;;6229973;28;20025;-68
2023/07/11 01:37:13;;;;;;;7.97;3.07;;;;;;;;;;6232729;28;20029;-68
2023/07/11 01:40:14;;;;;;;3.23;2.93;;;;;;;;;;6236214;28;20268;-67
2023/07/11 01:43:15;;;;;;;3.58;3.05;;;;;;;;;;6233361;28;20280;-67
2023/07/11 01:46:15;;;;;;;4.40;3.28;;;;;;;;;;6235487;28;20195;-68
2023/07/11 01:49:15;;;;;;;4.72;3.20;;;;;;;;;;6232594;28;20520;-67
2023/07/11 01:52:17;;;;;;;3.75;3.22;;;;;;;;;;6230697;28;20085;-67
2023/07/11 01:55:17;;;;;;;3.90;2.85;;;;;;;;;;6234004;28;20017;-67
2023/07/11 01:58:17;;;;;;;4.00;3.33;;;;;;;;;;6235751;28;20106;-68
2023/07/11 02:01:18;;;;;;;3.60;2.77;;;;;;;;;;6236245;28;20076;-67
2023/07/11 02:04:21;;;;;;;6.43;3.07;;;;;;;;;;5885973;28;9999945;-68
2023/07/11 02:07:21;;;;;;;5.45;3.25;;;;;;;;;;6237699;28;20268;-69
2023/07/11 02:10:22;;;;;;;4.30;3.60;;;;;;;;;;6238673;28;20028;-69
2023/07/11 02:13:22;;;;;;;8.57;3.50;;;;;;;;;;6237105;28;20025;-69
2023/07/11 02:16:22;;;;;;;4.43;3.40;;;;;;;;;;6236079;28;20388;-68
2023/07/11 02:19:23;;;;;;;5.77;3.43;;;;;;;;;;6236099;28;20029;-69
2023/07/11 02:22:23;;;;;;;4.22;3.53;;;;;;;;;;6239283;28;20029;-68
2023/07/11 02:25:24;;;;;;;4.07;3.20;;;;;;;;;;6239089;28;20029;-66
2023/07/11 02:28:24;;;;;;;3.43;3.10;;;;;;;;;;6239747;28;20283;-69
2023/07/11 02:31:24;;;;;;;4.30;3.03;;;;;;;;;;6238638;28;20299;-68
2023/07/11 02:34:25;;;;;;;3.17;2.87;;;;;;;;;;6235781;28;20567;-68
2023/07/11 02:37:25;;;;;;;3.87;3.17;;;;;;;;;;6240361;28;20031;-70
2023/07/11 02:40:25;;;;;;;3.63;3.33;;;;;;;;;;6238984;28;21642;-69
2023/07/11 02:43:25;;;;;;;3.40;2.80;;;;;;;;;;6240504;28;20505;-68
2023/07/11 02:46:26;;;;;;;5.53;2.90;;;;;;;;;;6235779;28;20163;-67
2023/07/11 02:49:26;;;;;;;4.82;3.08;;;;;;;;;;6235766;28;20477;-68
2023/07/11 02:52:27;;;;;;;3.37;3.03;;;;;;;;;;6232190;28;20052;-68
2023/07/11 02:55:27;;;;;;;4.80;2.80;;;;;;;;;;6238636;28;20604;-67
2023/07/11 02:58:27;;;;;;;3.92;3.10;;;;;;;;;;6240989;28;20040;-67
2023/07/11 03:01:31;;;;;;;3.78;3.25;;;;;;;;;;6238051;28;20557;-67
2023/07/11 03:04:32;;;;;;;3.08;2.78;;;;;;;;;;6239383;28;20099;-67
2023/07/11 03:07:32;;;;;;;3.83;3.23;;;;;;;;;;6244515;28;20025;-67
2023/07/11 03:10:33;;;;;;;3.50;3.15;;;;;;;;;;6240232;28;20343;-67
2023/07/11 03:13:33;;;;;;;4.20;3.30;;;;;;;;;;6238466;28;20338;-67
2023/07/11 03:16:33;;;;;;;4.27;3.33;;;;;;;;;;6237975;28;20056;-67
2023/07/11 03:19:33;;;;;;;4.30;3.40;;;;;;;;;;6237781;28;20264;-67
2023/07/11 03:22:34;;;;;;;3.37;3.07;;;;;;;;;;6235590;28;20272;-67
2023/07/11 03:25:35;;;;;;;4.20;3.47;;;;;;;;;;6235997;28;20318;-68
2023/07/11 03:28:35;;;;;;;5.22;3.65;;;;;;;;;;6239221;28;20308;-67
2023/07/11 03:31:35;;;;;;;3.90;3.50;;;;;;;;;;6238602;28;20354;-68
2023/07/11 03:34:36;;;;;;;4.05;3.33;;;;;;;;;;6240806;28;20025;-66
2023/07/11 03:37:36;;;;;;;5.18;3.67;;;;;;;;;;6243684;28;20025;-68
2023/07/11 03:40:37;;;;;;;3.50;3.20;;;;;;;;;;6231563;28;20018;-67
2023/07/11 03:43:37;;;;;;;3.83;2.97;;;;;;;;;;6230659;28;20640;-68
2023/07/11 03:46:37;;;;;;;3.00;2.70;;;;;;;;;;6230369;28;20033;-68
2023/07/11 03:49:37;;;;;;;3.30;3.00;;;;;;;;;;6228800;28;20288;-65
2023/07/11 03:52:37;;;;;;;3.10;2.73;;;;;;;;;;6227512;28;20292;-68
2023/07/11 03:55:38;;;;;;;3.67;3.10;;;;;;;;;;6231450;28;20559;-68
2023/07/11 03:58:38;;;;;;;3.78;3.40;;;;;;;;;;6227780;28;20760;-67
2023/07/11 04:01:38;;;;;;;4.63;3.80;;;;;;;;;;6229284;28;20024;-67
2023/07/11 04:04:38;;;;;;;4.43;3.50;;;;;;;;;;6228991;28;20401;-67
2023/07/11 04:07:39;;;;;;;3.53;3.23;;;;;;;;;;6232406;28;20053;-67
2023/07/11 04:10:39;;;;;;;3.70;3.40;;;;;;;;;;6230219;28;20605;-67
2023/07/11 04:13:39;;;;;;;3.53;3.00;;;;;;;;;;6230982;28;20021;-67
2023/07/11 04:16:39;;;;;;;6.73;3.27;;;;;;;;;;6227724;28;20283;-67
2023/07/11 04:19:39;;;;;;;3.70;3.35;;;;;;;;;;6232050;28;20350;-67
2023/07/11 04:22:40;;;;;;;4.30;3.70;;;;;;;;;;6222371;28;20033;-67
2023/07/11 04:25:40;;;;;;;5.82;3.22;;;;;;;;;;6227961;28;20116;-68
2023/07/11 04:28:40;;;;;;;4.60;3.30;;;;;;;;;;6229487;28;20030;-67
2023/07/11 04:31:40;;;;;;;4.20;3.47;;;;;;;;;;6227093;28;20435;-66
2023/07/11 04:34:41;;;;;;;4.20;3.43;;;;;;;;;;6230274;28;20322;-68
2023/07/11 04:37:41;;;;;;;6.90;3.57;;;;;;;;;;6242147;28;20013;-68
2023/07/11 04:40:41;;;;;;;3.70;3.22;;;;;;;;;;6242792;28;20303;-67
2023/07/11 04:43:41;;;;;;;5.63;3.30;;;;;;;;;;6233218;28;20397;-67
2023/07/11 04:46:42;;;;;;;3.58;3.28;;;;;;;;;;6240102;28;20029;-67
2023/07/11 04:49:42;;;;;;;5.57;4.00;;;;;;;;;;6233948;28;20108;-68
2023/07/11 04:52:43;;;;;;;3.97;3.53;;;;;;;;;;6233412;28;20365;-67
2023/07/11 04:55:43;;;;;;;3.75;3.30;;;;;;;;;;6236141;28;20058;-66
2023/07/11 04:58:43;;;;;;;5.10;3.30;;;;;;;;;;6237995;28;20152;-64
2023/07/11 05:01:46;;;;;;;5.05;3.83;;;;;;;;;;6233500;28;20401;-63
2023/07/11 05:04:47;;;;;;;3.88;3.47;;;;;;;;;;6237465;28;20034;-63
2023/07/11 05:07:47;;;;;;;3.70;3.40;;;;;;;;;;6227229;28;20022;-61
2023/07/11 05:10:58;;;;;;;4.77;3.40;;;;;;;;;;6233928;28;20040;-64
2023/07/11 05:13:58;;;;;;;4.07;3.08;;;;;;;;;;6232651;28;20283;-63
2023/07/11 05:16:59;;;;;;;3.87;3.30;;;;;;;;;;6222813;28;20045;-63
2023/07/11 05:19:59;;;;;;;;;;;;;;;;;;5880349;28;9999746;-63
2023/07/11 05:22:59;;;;;;;4.47;3.30;;;;;;;;;;6226731;28;20302;-63
2023/07/11 05:26:00;;;;;;;3.67;3.30;;;;;;;;;;6230111;28;20033;-63
2023/07/11 05:29:00;;;;;;;3.50;3.20;;;;;;;;;;6225606;28;20738;-64
2023/07/11 05:32:00;;;;;;;4.77;3.63;;;;;;;;;;6221515;28;20458;-61
2023/07/11 05:35:00;;;;;;;5.60;3.73;;;;;;;;;;6224201;28;20665;-61
2023/07/11 05:38:01;;;;;;;4.07;3.47;;;;;;;;;;6229547;28;20714;-59
2023/07/11 05:41:01;;;;;;;4.57;3.63;;;;;;;;;;6228288;28;20048;-61
2023/07/11 05:44:01;;;;;;;4.20;3.80;;;;;;;;;;6225389;28;20028;-60
2023/07/11 05:47:02;;;;;;;4.63;3.63;;;;;;;;;;6228566;28;20017;-63
2023/07/11 05:50:02;;;;;;;4.00;3.60;;;;;;;;;;6221929;28;20071;-71
2023/07/11 05:53:02;;;;;;;4.53;3.88;;;;;;;;;;6220731;28;20033;-70
2023/07/11 05:56:03;;;;;;;4.00;3.60;;;;;;;;;;6227376;28;20022;-69
2023/07/11 05:59:03;;;;;;;4.05;3.20;;;;;;;;;;6225935;28;20526;-70
2023/07/11 06:02:03;;;;;;;5.20;4.13;;;;;;;;;;6224357;28;20033;-70
2023/07/11 06:05:04;;;;;;;4.90;3.53;;;;;;;;;;6245067;28;20029;-70
2023/07/11 06:08:04;;;;;;;5.55;4.18;;;;;;;;;;6233148;28;20156;-70
2023/07/11 06:11:05;;;;;;;4.93;4.03;;;;;;;;;;6234942;28;20026;-68
2023/07/11 06:14:06;;;;;;;5.63;4.68;;;;;;;;;;6231783;28;20056;-71
2023/07/11 06:17:06;;;;;;;4.30;3.90;;;;;;;;;;6233575;28;20144;-71
2023/07/11 06:20:09;;;;;;;5.80;4.00;;;;;;;;;;6229200;28;20426;-70
2023/07/11 06:23:09;;;;;;;4.28;3.67;;;;;;;;;;6227041;28;20093;-71
2023/07/11 06:26:09;;;;;;;3.80;3.47;;;;;;;;;;6234225;28;20055;-71
2023/07/11 06:29:09;;;;;;;4.37;3.30;;;;;;;;;;6232126;28;20032;-71
2023/07/11 06:32:10;;;;;;;5.53;4.20;;;;;;;;;;6241122;28;20351;-71
2023/07/11 06:35:10;;;;;;;6.97;4.20;;;;;;;;;;6236780;28;20284;-70
2023/07/11 06:38:10;;;;;;;4.45;3.97;;;;;;;;;;6226929;28;20156;-71
2023/07/11 06:41:11;;;;;;;3.53;3.23;;;;;;;;;;6234034;28;20036;-70
2023/07/11 06:44:11;;;;;;;4.07;3.17;;;;;;;;;;6223039;28;20248;-72
2023/07/11 06:47:11;;;;;;;3.17;2.87;;;;;;;;;;6237671;28;20383;-71
2023/07/11 06:50:11;;;;;;;4.53;3.10;;;;;;;;;;6226191;28;20027;-72
2023/07/11 06:53:12;;;;;;;3.50;3.05;;;;;;;;;;6228948;28;20021;-71
2023/07/11 06:56:12;;;;;;;14.17;6.63;;;;;;;;;;6233249;28;20101;-72
2023/07/11 06:59:19;;;;;;;9.30;5.70;;;;;;;;;;6231232;28;20279;-69
2023/07/11 07:02:19;;;;;;;7.38;5.43;;;;;;;;;;6233986;28;20025;-69
2023/07/11 07:05:20;;;;;;;5.90;4.85;;;;;;;;;;6231687;28;20147;-72
2023/07/11 07:08:21;;;;;;;6.70;5.43;;;;;;;;;;6230067;28;20128;-69
2023/07/11 07:11:21;;;;;;;6.43;4.90;;;;;;;;;;6237887;28;20124;-70
2023/07/11 07:14:22;;;;;;;6.00;4.50;;;;;;;;;;6235048;28;21356;-70
2023/07/11 07:17:22;;;;;;;5.53;4.13;;;;;;;;;;6225853;28;20752;-72
2023/07/11 07:20:22;;;;;;;4.17;3.87;;;;;;;;;;6231048;28;20101;-71
2023/07/11 07:23:22;;;;;;;5.23;4.40;;;;;;;;;;6236612;28;20041;-71
2023/07/11 07:26:23;;;;;;;4.35;3.67;;;;;;;;;;6237708;28;20033;-71
2023/07/11 07:29:23;;;;;;;4.30;3.90;;;;;;;;;;6240310;28;20033;-74
2023/07/11 07:32:24;;;;;;;5.57;4.30;;;;;;;;;;6240764;28;20025;-71
2023/07/11 07:35:24;;;;;;;5.63;3.83;;;;;;;;;;6233916;28;20054;-71
2023/07/11 07:38:27;;;;;;;6.87;4.60;;;;;;;;;;6236192;28;20029;-71
2023/07/11 07:41:27;;;;;;;4.90;4.18;;;;;;;;;;6241046;28;20232;-72
2023/07/11 07:44:28;;;;;;;6.23;4.67;;;;;;;;;;6237819;28;20021;-71
2023/07/11 07:47:28;;;;;;;6.83;4.77;;;;;;;;;;6231621;28;20031;-70
2023/07/11 07:50:28;;;;;;;5.83;5.17;;;;;;;;;;6234332;28;20025;-70
2023/07/11 07:53:29;;;;;;;5.57;4.60;;;;;;;;;;6227853;28;20025;-70
2023/07/11 07:56:30;;;;;;;7.45;4.25;;;;;;;;;;6173166;28;20725;-69
2023/07/11 07:59:30;;;;;;;6.85;4.53;;;;;;;;;;6200070;28;20480;-70
2023/07/11 08:02:31;;;;;;;3.70;3.35;;;;;;;;;;6196898;28;20062;-69
2023/07/11 08:05:31;;;;;;;2.88;2.67;;;;;;;;;;6195039;28;20497;-67
2023/07/11 08:08:32;;;;;;;4.87;4.37;;;;;;;;;;6190437;28;21278;-67
2023/07/11 08:11:32;;;;;;;6.40;4.40;;;;;;;;;;6207753;28;20431;-67
2023/07/11 08:14:36;;;;;;;6.47;3.90;;;;;;;;;;6206136;28;20937;-68
2023/07/11 08:17:36;;;;;;;8.50;4.93;;;;;;;;;;6189213;28;20029;-68
2023/07/11 08:20:36;;;;;;;5.53;4.13;;;;;;;;;;6191948;28;21419;-69
2023/07/11 08:23:37;;;;;;;5.30;4.50;;;;;;;;;;6195028;28;20133;-66
2023/07/11 08:26:37;;;;;;;4.17;3.57;;;;;;;;;;6192332;28;20035;-66
2023/07/11 08:29:40;;;;;;;6.10;4.17;;;;;;;;;;6194565;28;20032;-64
2023/07/11 08:32:40;;;;;;;5.35;4.28;;;;;;;;;;5847344;28;10000393;-67
2023/07/11 08:35:41;;;;;;;6.83;4.90;;;;;;;;;;6191635;28;20072;-66
2023/07/11 08:38:43;;;;;;;5.28;4.78;;;;;;;;;;6191095;28;20271;-67
2023/07/11 08:41:50;;;;;;;5.88;5.15;;;;;;;;;;6192024;28;20079;-68
2023/07/11 08:45:01;;;;;;;5.20;4.70;;;;;;;;;;6202076;28;20661;-66
2023/07/11 08:48:05;;;;;;;7.03;4.40;;;;;;;;;;6224516;28;20442;-64
2023/07/11 08:51:23;;;;;;;5.63;4.43;;;;;;;;;;6240218;28;20457;-65
2023/07/11 08:54:42;;;;;;;5.82;4.63;;;;;;;;;;6226517;28;20027;-66
2023/07/11 08:57:45;;;;;;;4.60;4.20;;;;;;;;;;5879036;28;9999913;-67
2023/07/11 09:00:46;;;;;;;4.57;3.80;;;;;;;;;;6232019;28;20104;-64
2023/07/11 09:03:47;;;;;;;4.18;3.67;;;;;;;;;;6227995;28;20036;-65
2023/07/11 09:06:59;;;;;;;4.50;3.95;;;;;;;;;;6229044;28;20407;-68
2023/07/11 09:10:00;;;;;;;4.22;3.83;;;;;;;;;;6230500;28;20032;-68
2023/07/11 09:13:24;;;;;;;4.07;3.67;;;;;;;;;;6233107;28;20017;-65
2023/07/11 09:16:32;;;;;;;4.45;3.75;;;;;;;;;;6199014;28;20094;-66
2023/07/11 09:19:51;;;;;;;4.15;3.65;;;;;;;;;;6200713;28;20069;-67
2023/07/11 09:23:00;;;;;;;3.85;3.50;;;;;;;;;;6193042;28;20391;-66
2023/07/11 09:26:02;;;;;;;4.35;3.60;;;;;;;;;;6194797;28;20379;-67
2023/07/11 09:29:06;;;;;;;3.72;3.40;;;;;;;;;;6193451;28;20131;-67
2023/07/11 09:32:08;;;;;;;5.65;4.00;;;;;;;;;;6199370;28;20433;-66
2023/07/11 09:35:23;;;;;;;4.63;3.45;;;;;;;;;;6196798;28;20030;-68
2023/07/11 09:38:26;;;;;;;3.97;3.60;;;;;;;;;;6190488;28;20029;-65
2023/07/11 09:41:37;;;;;;;3.45;3.15;;;;;;;;;;6191083;28;21561;-66
2023/07/11 09:44:38;;;;;;;5.70;3.58;;;;;;;;;;6190160;28;20128;-65
2023/07/11 09:47:39;;;;;;;3.50;3.20;;;;;;;;;;6187704;28;20033;-64
2023/07/11 09:50:39;;;;;;;3.70;3.40;;;;;;;;;;6188308;28;20052;-66
2023/07/11 09:53:43;;;;;;;4.93;3.60;;;;;;;;;;6189702;28;21131;-68
2023/07/11 09:56:45;;;;;;;4.38;3.47;;;;;;;;;;6215406;28;20095;-68
2023/07/11 09:59:58;;;;;;;4.07;3.53;;;;;;;;;;6214640;28;20022;-68
2023/07/11 10:02:59;;;;;;;4.45;3.40;;;;;;;;;;6193289;28;20045;-65
2023/07/11 10:06:00;;;;;;;3.53;3.22;;;;;;;;;;6191159;28;20064;-67
2023/07/11 10:09:05;;;;;;;4.50;3.60;;;;;;;;;;6189396;28;20026;-69
2023/07/11 10:12:16;;;;;;;4.18;3.75;;;;;;;;;;6189950;28;20068;-67
2023/07/11 10:15:17;;;;;;;4.60;3.50;;;;;;;;;;6201149;28;20583;-67
2023/07/11 10:18:18;;;;;;;3.60;3.30;;;;;;;;;;6225975;28;20044;-67
2023/07/11 10:21:20;;;;;;;3.67;3.38;;;;;;;;;;6240359;28;20029;-67
2023/07/11 10:24:24;;;;;;;3.45;3.15;;;;;;;;;;6241357;28;20037;-67
2023/07/11 10:27:29;;;;;;;3.50;3.20;;;;;;;;;;6232069;28;20366;-70
2023/07/11 10:30:33;;;;;;;4.68;3.45;;;;;;;;;;6229318;28;20028;-67
2023/07/11 10:33:36;;;;;;;4.15;3.10;;;;;;;;;;6218187;28;20040;-69
2023/07/11 10:36:39;;;;;;;3.35;3.05;;;;;;;;;;6220452;28;20029;-67
2023/07/11 10:39:40;;;;;;;3.80;3.47;;;;;;;;;;6227992;28;20145;-67
2023/07/11 10:42:44;;;;;;;4.88;3.30;;;;;;;;;;6231630;28;20061;-68
2023/07/11 10:45:45;;;;;;;4.10;3.80;;;;;;;;;;6216643;28;20018;-68
2023/07/11 10:48:47;;;;;;;3.92;3.30;;;;;;;;;;6197678;28;20502;-71
2023/07/11 10:52:11;;;;;;;3.35;3.05;;;;;;;;;;6195825;28;20128;-67
2023/07/11 10:55:17;;;;;;;3.55;3.17;;;;;;;;;;6193123;28;20044;-67
2023/07/11 10:58:20;;;;;;;3.90;3.50;;;;;;;;;;5852063;28;10000291;-68
2023/07/11 11:01:26;;;;;;;3.47;3.17;;;;;;;;;;6196779;28;20022;-69
2023/07/11 11:04:45;;;;;;;3.53;3.20;;;;;;;;;;6202146;28;20495;-68
2023/07/11 11:07:49;;;;;;;3.72;3.42;;;;;;;;;;6204705;28;20347;-69
2023/07/11 11:11:01;;;;;;;3.20;2.90;;;;;;;;;;6206905;28;20029;-68
2023/07/11 11:14:06;;;;;;;4.70;3.30;;;;;;;;;;6233513;28;20114;-69
2023/07/11 11:17:25;;;;;;;4.35;3.45;;;;;;;;;;6244876;28;20043;-68
2023/07/11 11:20:36;;;;;;;4.68;3.33;;;;;;;;;;6238522;28;20542;-68
2023/07/11 11:23:49;;;;;;;5.15;4.00;;;;;;;;;;6214349;28;20022;-68
2023/07/11 11:26:59;;;;;;;4.38;3.97;;;;;;;;;;6197408;28;20053;-69
2023/07/11 11:30:05;;;;;;;3.72;3.42;;;;;;;;;;6214148;28;20060;-71
2023/07/11 11:33:12;;;;;;;4.05;3.58;;;;;;;;;;6228338;28;20223;-73
2023/07/11 11:36:34;;;;;;;4.22;3.50;;;;;;;;;;6207049;28;20160;-69
2023/07/11 11:40:01;;;;;;;3.97;3.63;;;;;;;;;;6201198;28;20022;-66
2023/07/11 11:43:04;;;;;;;4.50;4.10;;;;;;;;;;6195400;28;20037;-68
2023/07/11 11:46:06;;;;;;;5.10;4.60;;;;;;;;;;6199736;28;20557;-69
2023/07/11 11:49:08;;;;;;;4.95;4.53;;;;;;;;;;6199542;28;20092;-68
2023/07/11 11:52:09;;;;;;;4.68;4.28;;;;;;;;;;6193398;28;20260;-70
2023/07/11 11:55:29;;;;;;;4.73;4.30;;;;;;;;;;6195362;28;20073;-68
2023/07/11 11:58:30;;;;;;;4.60;3.92;;;;;;;;;;6182161;28;20228;-65
2023/07/11 12:01:40;;;;;;;4.60;4.20;;;;;;;;;;6198346;28;20092;-66
2023/07/11 12:04:56;;;;;;;4.35;3.92;;;;;;;;;;6199269;28;20064;-68
2023/07/11 12:08:17;;;;;;;4.20;3.80;;;;;;;;;;6205751;28;20108;-66
2023/07/11 12:11:18;;;;;;;4.28;3.80;;;;;;;;;;6203296;28;20133;-67
2023/07/11 12:14:23;;;;;;;4.32;3.92;;;;;;;;;;6200665;28;20078;-70
2023/07/11 12:17:32;;;;;;;4.20;3.90;;;;;;;;;;6192480;28;20394;-69
2023/07/11 12:20:32;;;;;;;4.07;3.78;;;;;;;;;;6214707;28;20343;-69
2023/07/11 12:23:33;;;;;;;4.40;3.90;;;;;;;;;;6197040;28;20398;-67
2023/07/11 12:26:33;;;;;;;4.53;4.10;;;;;;;;;;6197094;28;20033;-69
2023/07/11 12:29:39;;;;;;;4.40;4.00;;;;;;;;;;6194839;28;20029;-66
2023/07/11 12:32:45;;;;;;;4.55;4.10;;;;;;;;;;6197599;28;20022;-66
2023/07/11 12:35:46;;;;;;;5.10;4.03;;;;;;;;;;6196801;28;20096;-68
2023/07/11 12:39:07;;;;;;;4.30;4.00;;;;;;;;;;6200757;28;20310;-67
2023/07/11 12:42:23;;;;;;;4.10;3.78;;;;;;;;;;6205726;28;20041;-68
2023/07/11 12:45:24;;;;;;;4.60;3.63;;;;;;;;;;6199000;28;20324;-67
2023/07/11 12:48:26;;;;;;;4.40;4.10;;;;;;;;;;6202097;28;21700;-66
2023/07/11 12:51:36;;;;;;;5.03;4.00;;;;;;;;;;6200783;28;20030;-68
2023/07/11 12:54:36;;;;;;;5.03;4.45;;;;;;;;;;6202422;28;20568;-65
2023/07/11 12:57:42;;;;;;;5.33;4.07;;;;;;;;;;6196730;28;20329;-70
2023/07/11 13:00:43;;;;;;;4.60;4.13;;;;;;;;;;6201784;28;20228;-66
2023/07/11 13:03:43;;;;;;;3.90;3.60;;;;;;;;;;6192569;28;20033;-69
2023/07/11 13:06:48;;;;;;;6.65;3.92;;;;;;;;;;6201506;28;20419;-66
2023/07/11 13:09:49;;;;;;;4.63;4.20;;;;;;;;;;6203778;28;20018;-69
2023/07/11 13:12:51;;;;;;;4.50;4.20;;;;;;;;;;6200800;28;20094;-65
2023/07/11 13:15:51;;;;;;;4.65;4.10;;;;;;;;;;6201130;28;20033;-67
2023/07/11 13:18:52;;;;;;;4.25;3.88;;;;;;;;;;6197635;28;20103;-66
2023/07/11 13:21:52;;;;;;;4.40;4.00;;;;;;;;;;6190448;28;20040;-64
2023/07/11 13:24:56;;;;;;;4.38;3.97;;;;;;;;;;6192191;28;20864;-66
2023/07/11 13:27:56;;;;;;;4.03;3.72;;;;;;;;;;6194522;28;20040;-66
2023/07/11 13:30:58;;;;;;;4.33;4.00;;;;;;;;;;6195308;28;20025;-69
2023/07/11 13:34:18;;;;;;;4.20;3.80;;;;;;;;;;6196783;28;20037;-66
2023/07/11 13:37:22;;;;;;;4.25;3.85;;;;;;;;;;6193483;28;20578;-67
2023/07/11 13:40:49;;;;;;;3.65;3.35;;;;;;;;;;6198805;28;20017;-66
2023/07/11 13:43:53;;;;;;;3.90;3.60;;;;;;;;;;6189771;28;20110;-67
2023/07/11 13:46:53;;;;;;;4.35;3.97;;;;;;;;;;6193061;28;20558;-68
2023/07/11 13:50:14;;;;;;;3.65;3.35;;;;;;;;;;6193164;28;20028;-67
2023/07/11 13:53:16;;;;;;;4.28;3.88;;;;;;;;;;6196263;28;20037;-68
2023/07/11 13:56:16;;;;;;;4.22;3.92;;;;;;;;;;6195889;28;20931;-70
2023/07/11 13:59:17;;;;;;;4.10;3.73;;;;;;;;;;6195112;28;20365;-67
2023/07/11 14:02:17;;;;;;;4.20;4.00;;;;;;;;;;6218454;28;20136;-70
2023/07/11 14:05:28;;;;;;;4.97;3.95;;;;;;;;;;6214901;28;20476;-69
2023/07/11 14:08:28;;;;;;;4.22;3.92;;;;;;;;;;6199605;28;20036;-69
2023/07/11 14:11:29;;;;;;;4.13;3.87;;;;;;;;;;6198347;28;20443;-67
2023/07/11 14:14:29;;;;;;;4.45;4.00;;;;;;;;;;6200110;28;20136;-66
2023/07/11 14:17:29;;;;;;;5.97;4.03;;;;;;;;;;6204917;28;21148;-69
2023/07/11 14:20:29;;;;;;;7.33;4.30;;;;;;;;;;6201824;28;20035;-69
2023/07/11 14:23:32;;;;;;;4.50;4.20;;;;;;;;;;6200649;28;20022;-67
2023/07/11 14:26:32;;;;;;;4.53;3.92;;;;;;;;;;6217159;28;20290;-66
2023/07/11 14:29:33;;;;;;;4.13;3.83;;;;;;;;;;6201478;28;20021;-66
2023/07/11 14:32:33;;;;;;;4.50;4.10;;;;;;;;;;6198845;28;20439;-66
2023/07/11 14:35:33;;;;;;;4.40;3.97;;;;;;;;;;6199805;28;20033;-74
2023/07/11 14:38:34;;;;;;;4.37;4.00;;;;;;;;;;6198277;28;20022;-73
2023/07/11 14:41:34;;;;;;;4.55;4.15;;;;;;;;;;6201475;28;20123;-74
2023/07/11 14:44:34;;;;;;;4.40;4.00;;;;;;;;;;6204345;28;20030;-75
2023/07/11 14:47:34;;;;;;;4.70;4.40;;;;;;;;;;6205055;28;20359;-74
2023/07/11 14:50:35;;;;;;;4.47;4.07;;;;;;;;;;6205908;28;20035;-78
2023/07/11 14:53:35;;;;;;;4.67;4.27;;;;;;;;;;6199147;28;20364;-78
2023/07/11 14:56:35;;;;;;;4.73;4.33;;;;;;;;;;6202059;28;20501;-75
2023/07/11 14:59:36;;;;;;;4.50;4.10;;;;;;;;;;6211455;28;20044;-77
2023/07/11 15:02:36;;;;;;;4.43;4.13;;;;;;;;;;6204399;28;20029;-77
2023/07/11 15:05:37;;;;;;;6.23;3.97;;;;;;;;;;6193608;28;20029;-75
2023/07/11 15:08:37;;;;;;;4.82;4.43;;;;;;;;;;6228217;28;20422;-77
2023/07/11 15:11:39;;;;;;;4.80;4.40;;;;;;;;;;6231878;28;20083;-79
2023/07/11 15:14:41;;;;;;;5.75;4.38;;;;;;;;;;6238997;28;20083;-79
2023/07/11 15:17:41;;;;;;;4.35;4.05;;;;;;;;;;6252898;28;20018;-80
2023/07/11 15:20:42;;;;;;;4.35;3.95;;;;;;;;;;6241408;28;20037;-81
2023/07/11 15:23:42;;;;;;;4.53;4.13;;;;;;;;;;6245044;28;20359;-77
2023/07/11 15:26:43;;;;;;;4.40;4.00;;;;;;;;;;6238601;28;20374;-80
2023/07/11 15:29:43;;;;;;;4.85;4.45;;;;;;;;;;6234566;28;20394;-77
2023/07/11 15:32:44;;;;;;;4.07;3.73;;;;;;;;;;6234416;28;20359;-75
2023/07/11 15:35:44;;;;;;;4.13;3.75;;;;;;;;;;6232649;28;20045;-76
2023/07/11 15:38:44;;;;;;;4.00;3.67;;;;;;;;;;6231946;28;20021;-75
2023/07/11 15:41:54;;;;;;;3.93;3.60;;;;;;;;;;6231759;28;20051;-75
2023/07/11 15:44:56;;;;;;;4.50;4.10;;;;;;;;;;6229874;28;20030;-78
2023/07/11 15:47:57;;;;;;;3.97;3.67;;;;;;;;;;6236008;28;20022;-75
2023/07/11 15:50:58;;;;;;;4.07;3.63;;;;;;;;;;6244306;28;20516;-77
2023/07/11 15:53:59;;;;;;;4.15;3.67;;;;;;;;;;6236710;28;20104;-76
2023/07/11 15:56:59;;;;;;;5.45;3.60;;;;;;;;;;6233789;28;20493;-77
2023/07/11 16:00:00;;;;;;;4.90;3.70;;;;;;;;;;6235956;28;20028;-76
2023/07/11 16:03:00;;;;;;;6.73;4.10;;;;;;;;;;6238716;28;20021;-76
2023/07/11 16:06:01;;;;;;;7.28;4.03;;;;;;;;;;6234446;28;20018;-67
2023/07/11 16:09:01;;;;;;;5.50;4.60;;;;;;;;;;6241371;28;20018;-68
2023/07/11 16:12:01;;;;;;;6.30;3.90;;;;;;;;;;6232406;28;20511;-68
2023/07/11 16:15:03;;;;;;;4.75;4.15;;;;;;;;;;6231284;28;20082;-66
2023/07/11 16:18:09;;;;;;;4.18;3.78;;;;;;;;;;6227239;28;20048;-67
2023/07/11 16:21:13;;;;;;;6.88;4.40;;;;;;;;;;6229209;28;20115;-74
2023/07/11 16:24:18;;;;;;;5.53;4.30;;;;;;;;;;6223948;28;20017;-73
2023/07/11 16:27:19;;;;;;;4.57;4.18;;;;;;;;;;6225910;28;20443;-72
2023/07/11 16:30:19;;;;;;;4.60;4.20;;;;;;;;;;6228953;28;20254;-72
2023/07/11 16:33:23;;;;;;;5.10;4.10;;;;;;;;;;6227811;28;20677;-73
2023/07/11 16:36:24;;;;;;;8.18;4.50;;;;;;;;;;6235160;28;20287;-73
2023/07/11 16:39:26;;;;;;;4.03;3.70;;;;;;;;;;6228202;28;20081;-72
2023/07/11 16:42:27;;;;;;;8.10;4.10;;;;;;;;;;6229761;28;20027;-72
2023/07/11 16:45:31;;;;;;;6.43;4.30;;;;;;;;;;6229056;28;20026;-70
2023/07/11 16:48:32;;;;;;;5.35;4.13;;;;;;;;;;6226044;28;20041;-73
2023/07/11 16:51:32;;;;;;;5.28;3.78;;;;;;;;;;6230585;28;20037;-71
2023/07/11 16:54:32;;;;;;;5.97;3.97;;;;;;;;;;6235887;28;20087;-71
2023/07/11 16:57:32;;;;;;;5.07;3.80;;;;;;;;;;6238803;28;20040;-71
2023/07/11 17:00:32;;;;;;;5.80;3.27;;;;;;;;;;6248314;28;20047;-73
2023/07/11 17:03:33;;;;;;;3.97;3.38;;;;;;;;;;6228494;28;20478;-73
2023/07/11 17:06:33;;;;;;;3.90;3.50;;;;;;;;;;6224797;28;20095;-71
2023/07/11 17:09:33;;;;;;;4.55;4.15;;;;;;;;;;6227687;28;20315;-72
2023/07/11 17:12:34;;;;;;;4.70;4.30;;;;;;;;;;6230643;28;20017;-70
2023/07/11 17:15:34;;;;;;;4.70;4.30;;;;;;;;;;6227939;28;20618;-72
2023/07/11 17:18:35;;;;;;;4.60;3.80;;;;;;;;;;6229947;28;20107;-73
2023/07/11 17:21:35;;;;;;;5.43;4.23;;;;;;;;;;6227536;28;20552;-74
2023/07/11 17:24:35;;;;;;;4.33;3.93;;;;;;;;;;6224475;28;20018;-74
2023/07/11 17:27:35;;;;;;;6.60;4.20;;;;;;;;;;6225573;28;20020;-76
2023/07/11 17:30:36;;;;;;;5.00;4.50;;;;;;;;;;6230058;28;20029;-74
2023/07/11 17:33:36;;;;;;;4.82;4.40;;;;;;;;;;6228383;28;20280;-73
2023/07/11 17:36:39;;;;;;;5.60;3.93;;;;;;;;;;6226373;28;20564;-74
2023/07/11 17:39:39;;;;;;;6.47;4.30;;;;;;;;;;6231888;28;20056;-75
2023/07/11 17:42:39;;;;;;;5.67;4.13;;;;;;;;;;6225711;28;20021;-75
2023/07/11 17:45:41;;;;;;;5.27;4.43;;;;;;;;;;6226702;28;20049;-75
2023/07/11 17:48:41;;;;;;;7.95;4.25;;;;;;;;;;5879674;28;9999864;-73
2023/07/11 17:51:41;;;;;;;8.07;4.25;;;;;;;;;;6233246;28;20021;-75
2023/07/11 17:54:41;;;;;;;4.83;4.30;;;;;;;;;;6230372;28;20025;-73
2023/07/11 17:57:42;;;;;;;5.30;4.07;;;;;;;;;;6232927;28;20454;-73
2023/07/11 18:00:42;;;;;;;4.30;3.90;;;;;;;;;;6228978;28;20028;-72
2023/07/11 18:03:43;;;;;;;4.33;3.93;;;;;;;;;;6225964;28;20021;-71
2023/07/11 18:06:43;;;;;;;8.17;4.53;;;;;;;;;;6236300;28;20014;-73
2023/07/11 18:09:43;;;;;;;4.70;4.10;;;;;;;;;;6233698;28;20284;-72
2023/07/11 18:12:44;;;;;;;4.72;4.00;;;;;;;;;;6228890;28;20037;-73